Time;durP1;ratioP1;P1;durP2;ratioP2;P2;SDS_P1;SDS_P2;PMS_P1;PMS_P2;Temp;Humidity;BMP_temperature;BMP_pressure;BME280_temperature;BME280_humidity;BME280_pressure;Samples;Min_cycle;Max_cycle;Signal;HPM_P1;HPM_P2
2022/04/17 00:00:12;;;;;;;5.05;3.15;;;;;;;7.41;nan;100519.31;5001151;28;20289;-74
2022/04/17 00:02:38;;;;;;;4.13;3.28;;;;;;;7.41;nan;100521.09;4998956;28;20498;-73
2022/04/17 00:05:05;;;;;;;3.08;2.78;;;;;;;7.42;nan;100514.94;4997192;28;20450;-74
2022/04/17 00:07:31;;;;;;;2.65;2.30;;;;;;;7.40;nan;100514.13;4999542;28;20210;-74
2022/04/17 00:09:57;;;;;;;2.97;2.43;;;;;;;7.38;nan;100513.34;5001868;28;20376;-73
2022/04/17 00:12:23;;;;;;;3.15;2.85;;;;;;;7.36;nan;100509.94;5000323;28;20492;-73
2022/04/17 00:14:49;;;;;;;4.10;3.33;;;;;;;7.30;nan;100509.25;5001790;28;20215;-73
2022/04/17 00:17:14;;;;;;;4.07;2.80;;;;;;;7.27;nan;100511.97;5001545;28;20486;-73
2022/04/17 00:19:40;;;;;;;2.70;2.50;;;;;;;7.26;nan;100514.63;5000282;28;20727;-76
2022/04/17 00:22:05;;;;;;;3.00;2.70;;;;;;;7.22;nan;100505.22;4997863;28;20687;-74
2022/04/17 00:24:31;;;;;;;3.93;2.70;;;;;;;7.18;nan;100504.44;4999019;28;20260;-74
2022/04/17 00:27:00;;;;;;;2.93;2.63;;;;;;;7.11;nan;100502.97;4999586;28;20195;-75
2022/04/17 00:29:27;;;;;;;4.45;3.35;;;;;;;7.05;nan;100500.59;5000200;28;20202;-73
2022/04/17 00:31:53;;;;;;;4.90;2.90;;;;;;;6.98;nan;100499.09;4999303;28;20467;-73
2022/04/17 00:34:19;;;;;;;4.82;4.30;;;;;;;6.92;nan;100481.88;4998948;28;20218;-74
2022/04/17 00:36:45;;;;;;;6.45;4.93;;;;;;;6.87;nan;100478.56;4999154;28;20230;-73
2022/04/17 00:39:12;;;;;;;4.50;3.78;;;;;;;6.85;nan;100475.13;5000588;28;20207;-74
2022/04/17 00:41:37;;;;;;;6.82;4.95;;;;;;;6.81;nan;100477.00;4997554;28;20453;-74
2022/04/17 00:44:10;;;;;;;4.50;4.10;;;;;;;6.78;nan;100479.72;4997562;28;20300;-74
2022/04/17 00:46:35;;;;;;;6.75;3.97;;;;;;;6.80;nan;100479.66;4998674;28;20301;-73
2022/04/17 00:49:01;;;;;;;4.10;3.63;;;;;;;6.77;nan;100472.78;4997973;28;20336;-73
2022/04/17 00:51:26;;;;;;;5.07;4.00;;;;;;;6.73;nan;100465.97;4998841;28;20738;-74
2022/04/17 00:53:53;;;;;;;5.10;4.07;;;;;;;6.71;nan;100461.72;4982219;28;20247;-73
2022/04/17 00:56:20;;;;;;;3.90;3.50;;;;;;;6.66;nan;100464.47;4991133;28;20867;-73
2022/04/17 00:58:46;;;;;;;3.80;3.20;;;;;;;6.58;nan;100462.09;4985434;28;20203;-74
2022/04/17 01:01:11;;;;;;;3.23;2.93;;;;;;;6.49;nan;100472.03;4988526;28;20237;-73
2022/04/17 01:03:37;;;;;;;2.90;2.20;;;;;;;6.45;nan;100478.22;4986613;28;20287;-74
2022/04/17 01:06:03;;;;;;;4.07;3.63;;;;;;;6.46;nan;100472.97;4984045;28;20559;-73
2022/04/17 01:08:28;;;;;;;5.20;3.50;;;;;;;6.51;nan;100470.19;4989837;28;20675;-72
2022/04/17 01:10:54;;;;;;;4.27;3.33;;;;;;;6.53;nan;100466.63;4992410;28;20525;-74
2022/04/17 01:13:20;;;;;;;3.20;2.80;;;;;;;6.50;nan;100468.50;4986773;28;20487;-73
2022/04/17 01:15:45;;;;;;;2.87;2.53;;;;;;;6.45;nan;100462.56;4986643;28;20266;-73
2022/04/17 01:18:11;;;;;;;3.40;2.77;;;;;;;6.40;nan;100462.75;4978284;28;20524;-74
2022/04/17 01:20:38;;;;;;;4.47;3.17;;;;;;;6.38;nan;100462.78;4987671;28;20269;-73
2022/04/17 01:28:32;;;;;;;4.10;2.90;;;;;;;6.42;nan;100464.38;4980190;28;20199;-73
2022/04/17 01:30:57;;;;;;;2.70;2.50;;;;;;;6.43;nan;100447.81;4983690;28;20733;-72
2022/04/17 01:33:23;;;;;;;4.20;2.80;;;;;;;6.49;nan;100451.13;4990726;28;21048;-72
2022/04/17 01:35:49;;;;;;;4.07;3.10;;;;;;;6.52;nan;100451.03;4980992;28;20282;-74
2022/04/17 01:38:15;;;;;;;5.10;3.05;;;;;;;6.54;nan;100455.28;4982469;28;20433;-73
2022/04/17 01:40:41;;;;;;;3.25;2.67;;;;;;;6.55;nan;100451.78;4991902;28;20231;-74
2022/04/17 01:43:08;;;;;;;3.10;2.80;;;;;;;6.58;nan;100454.28;5041201;22;20330;-80
2022/04/17 01:45:34;;;;;;;2.03;1.92;;;;;;;6.60;nan;100449.88;4996382;28;20302;-87
2022/04/17 01:47:59;;;;;;;3.40;2.77;;;;;;;6.60;nan;100447.25;5001209;28;20223;-76
2022/04/17 01:50:27;;;;;;;4.40;3.00;;;;;;;6.54;nan;100454.44;5001128;28;20246;-81
2022/04/17 01:52:52;;;;;;;4.82;2.92;;;;;;;6.47;nan;100450.34;5001172;28;20214;-84
2022/04/17 01:55:18;;;;;;;4.17;3.30;;;;;;;6.38;nan;100448.88;4983046;28;20211;-75
2022/04/17 01:57:44;;;;;;;3.27;2.60;;;;;;;6.34;nan;100447.25;4982326;28;20495;-75
2022/04/17 02:00:10;;;;;;;3.17;2.87;;;;;;;6.28;nan;100444.84;4983958;28;20219;-83
2022/04/17 02:02:35;;;;;;;3.05;2.75;;;;;;;6.19;nan;100453.84;4981272;28;20531;-83
2022/04/17 02:05:01;;;;;;;2.77;2.50;;;;;;;6.16;nan;100449.56;4982725;28;20227;-76
2022/04/17 02:07:26;;;;;;;4.33;2.53;;;;;;;6.19;nan;100439.03;4983347;28;20207;-82
2022/04/17 02:09:52;;;;;;;4.00;2.77;;;;;;;6.26;nan;100439.69;4983322;28;20639;-75
2022/04/17 02:12:17;;;;;;;2.80;2.60;;;;;;;6.28;nan;100424.84;4981954;28;20212;-75
2022/04/17 02:14:42;;;;;;;3.10;2.80;;;;;;;6.31;nan;100416.06;4983023;28;20235;-75
2022/04/17 02:17:08;;;;;;;2.97;2.67;;;;;;;6.34;nan;100414.19;4981847;28;20212;-78
2022/04/17 02:19:33;;;;;;;3.40;3.10;;;;;;;6.36;nan;100417.59;4982007;28;20686;-86
2022/04/17 02:21:58;;;;;;;3.47;2.63;;;;;;;6.37;nan;100413.25;4983459;28;20564;-75
2022/04/17 02:24:24;;;;;;;3.03;2.47;;;;;;;6.39;nan;100416.66;4981163;28;20238;-85
2022/04/17 02:26:49;;;;;;;2.73;2.53;;;;;;;6.35;nan;100410.69;4982812;28;20261;-81
2022/04/17 02:29:15;;;;;;;2.80;2.10;;;;;;;6.30;nan;100422.19;4980674;28;20212;-80
2022/04/17 02:31:40;;;;;;;3.20;2.77;;;;;;;6.20;nan;100416.41;4980203;28;20522;-75
2022/04/17 02:34:07;;;;;;;2.77;2.40;;;;;;;6.14;nan;100408.78;4980256;28;20239;-84
2022/04/17 02:36:32;;;;;;;2.42;2.22;;;;;;;6.12;nan;100410.59;4981815;28;20227;-76
2022/04/17 02:38:58;;;;;;;2.93;2.57;;;;;;;6.07;nan;100417.72;4981198;28;20341;-75
2022/04/17 02:41:24;;;;;;;3.30;2.30;;;;;;;6.01;nan;100415.31;4982757;28;20224;-83
2022/04/17 02:43:49;;;;;;;4.33;3.10;;;;;;;6.00;nan;100406.63;4980025;28;20327;-76
2022/04/17 02:47:42;;;;;;;7.37;3.27;;;;;;;6.00;nan;100411.84;4982062;28;20286;-82
2022/04/17 02:49:00;;;;;;;2.88;2.30;;;;;;;5.97;nan;100417.16;4981389;28;20239;-78
2022/04/17 02:51:25;;;;;;;2.10;1.90;;;;;;;5.95;nan;100421.56;4979819;28;20598;-82
2022/04/17 02:53:51;;;;;;;4.37;2.67;;;;;;;5.89;nan;100412.16;4981967;28;20472;-82
2022/04/17 02:56:16;;;;;;;4.10;3.33;;;;;;;5.85;nan;100415.75;4986551;28;20561;-75
2022/04/17 02:58:42;;;;;;;3.80;3.50;;;;;;;5.79;nan;100415.94;4986228;28;20302;-84
2022/04/17 03:06:35;;;;;;;4.10;3.20;;;;;;;5.61;nan;100414.75;4984641;28;20318;-76
2022/04/17 03:09:00;;;;;;;3.20;2.67;;;;;;;5.53;nan;100407.16;4987260;28;20294;-87
2022/04/17 03:11:25;;;;;;;2.93;2.73;;;;;;;5.49;nan;100400.34;4967625;28;20196;-83
2022/04/17 03:13:52;;;;;;;4.70;3.17;;;;;;;5.44;nan;100399.63;4983958;28;20211;-85
2022/04/17 03:16:17;;;;;;;3.30;2.60;;;;;;;5.38;nan;100397.22;4984271;28;20490;-85
2022/04/17 03:18:43;;;;;;;3.13;2.70;;;;;;;5.30;nan;100397.44;4983641;28;20611;-76
2022/04/17 03:21:09;;;;;;;3.40;3.10;;;;;;;5.27;nan;100394.91;4984148;28;20974;-83
2022/04/17 03:23:34;;;;;;;3.20;3.00;;;;;;;5.29;nan;100400.06;4985376;28;20257;-77
2022/04/17 03:26:00;;;;;;;4.40;3.80;;;;;;;5.29;nan;100393.13;4984853;28;20732;-77
2022/04/17 03:28:25;;;;;;;4.87;2.73;;;;;;;5.30;nan;100384.41;4984081;28;20771;-84
2022/04/17 03:30:51;;;;;;;4.50;2.90;;;;;;;5.28;nan;100388.78;4982693;28;20714;-77
2022/04/17 03:33:16;;;;;;;4.07;3.50;;;;;;;5.24;nan;100391.56;4982499;28;20592;-85
2022/04/17 03:35:42;;;;;;;4.83;3.33;;;;;;;5.26;nan;100387.13;4984622;28;20246;-85
2022/04/17 03:38:09;;;;;;;3.23;2.60;;;;;;;5.27;nan;100391.47;4982133;28;20367;-78
2022/04/17 03:40:35;;;;;;;5.20;3.55;;;;;;;5.26;nan;100387.97;4965474;28;20644;-79
2022/04/17 03:43:00;;;;;;;3.23;2.97;;;;;;;5.23;nan;100389.81;4984359;28;20286;-81
2022/04/17 03:45:25;;;;;;;3.27;2.70;;;;;;;5.21;nan;100382.09;4982913;28;20298;-84
2022/04/17 03:47:51;;;;;;;3.80;3.40;;;;;;;5.23;nan;100387.22;4980172;28;20243;-79
2022/04/17 03:50:16;;;;;;;4.63;3.67;;;;;;;5.22;nan;100382.94;4984137;28;20630;-83
2022/04/17 03:52:44;;;;;;;3.67;3.10;;;;;;;5.24;nan;100379.38;4983481;28;20267;-77
2022/04/17 03:55:11;;;;;;;4.50;3.63;;;;;;;5.24;nan;100383.75;4981744;28;20251;-77
2022/04/17 03:57:37;;;;;;;4.30;3.90;;;;;;;5.25;nan;100382.84;4979319;28;20207;-83
2022/04/17 04:00:05;;;;;;;4.75;4.00;;;;;;;5.22;nan;100385.53;4983911;28;20347;-80
2022/04/17 04:02:37;;;;;;;6.65;4.47;;;;;;;5.18;nan;100386.50;4982985;28;20468;-78
2022/04/17 04:05:03;;;;;;;4.97;3.85;;;;;;;5.13;nan;100385.78;4979848;28;20557;-85
2022/04/17 04:07:29;;;;;;;4.72;4.32;;;;;;;5.08;nan;100389.38;4984940;28;20231;-81
2022/04/17 04:09:54;;;;;;;4.13;3.17;;;;;;;5.02;nan;100397.38;4982141;28;20302;-77
2022/04/17 04:12:20;;;;;;;4.80;4.13;;;;;;;4.92;nan;100395.91;4983101;28;20215;-86
2022/04/17 04:14:46;;;;;;;5.40;4.50;;;;;;;4.86;nan;100388.25;4983644;28;20274;-79
2022/04/17 04:17:11;;;;;;;4.03;3.10;;;;;;;4.86;nan;100396.06;4982114;28;20207;-83
2022/04/17 04:19:36;;;;;;;4.73;4.17;;;;;;;4.87;nan;100398.66;4983339;28;20521;-87
2022/04/17 04:22:02;;;;;;;4.80;3.90;;;;;;;4.91;nan;100386.38;4982844;28;20531;-79
2022/04/17 04:24:28;;;;;;;3.90;3.60;;;;;;;4.95;nan;100395.84;4983519;28;20227;-79
2022/04/17 04:29:38;;;;;;;5.10;3.85;;;;;;;4.99;nan;100379.22;4983136;28;20207;-81
2022/04/17 04:32:04;;;;;;;5.18;3.72;;;;;;;5.01;nan;100381.78;4984551;28;20198;-80
2022/04/17 04:34:30;;;;;;;4.18;3.75;;;;;;;5.00;nan;100386.16;4981407;28;20728;-82
2022/04/17 04:36:55;;;;;;;4.53;3.87;;;;;;;5.01;nan;100387.00;4983732;28;20204;-79
2022/04/17 04:39:21;;;;;;;5.30;4.80;;;;;;;4.99;nan;100389.63;4984507;28;20298;-80
2022/04/17 04:41:46;;;;;;;4.07;3.33;;;;;;;4.99;nan;100400.03;4984047;28;20210;-77
2022/04/17 04:44:12;;;;;;;4.60;3.87;;;;;;;4.98;nan;100398.34;4983055;28;20243;-86
2022/04/17 04:46:38;;;;;;;5.43;3.90;;;;;;;4.93;nan;100395.00;4983756;28;20247;-84
2022/04/17 04:51:48;;;;;;;3.70;3.33;;;;;;;4.88;nan;100394.28;4982239;28;20200;-77
2022/04/17 04:54:14;;;;;;;3.67;3.37;;;;;;;4.80;nan;100398.84;4981359;28;20223;-77
2022/04/17 04:56:39;;;;;;;4.57;3.70;;;;;;;4.68;nan;100402.66;4983176;28;20666;-82
2022/04/17 04:59:05;;;;;;;6.60;3.93;;;;;;;4.55;nan;100406.47;4983970;28;20222;-84
2022/04/17 05:01:30;;;;;;;4.63;4.03;;;;;;;4.47;nan;100413.63;4980720;28;20491;-81
2022/04/17 05:03:55;;;;;;;5.23;3.97;;;;;;;4.68;nan;100409.59;4981415;28;20376;-87
2022/04/17 05:06:21;;;;;;;5.87;3.70;;;;;;;5.20;nan;100397.75;4980041;28;21260;-77
2022/04/17 05:08:46;;;;;;;4.00;2.87;;;;;;;5.83;nan;100396.69;4980881;28;20530;-84
2022/04/17 05:11:12;;;;;;;7.10;3.20;;;;;;;6.47;nan;100382.47;4980994;28;20223;-79
2022/04/17 05:13:38;;;;;;;4.27;3.50;;;;;;;7.00;nan;100377.97;4980898;28;20620;-77
2022/04/17 05:16:04;;;;;;;5.28;3.90;;;;;;;7.57;nan;100374.97;4978145;28;20743;-84
2022/04/17 05:18:30;;;;;;;3.67;3.30;;;;;;;8.10;nan;100375.44;4982786;28;20195;-78
2022/04/17 05:20:56;;;;;;;3.47;3.17;;;;;;;8.53;nan;100378.03;4981076;28;20463;-86
2022/04/17 05:23:29;;;;;;;3.93;2.93;;;;;;;8.92;nan;100375.47;4982992;28;20310;-85
2022/04/17 05:26:02;;;;;;;5.22;3.80;;;;;;;9.27;nan;100371.25;4983151;28;20212;-83
2022/04/17 05:28:28;;;;;;;4.80;3.40;;;;;;;9.55;nan;100361.25;4989599;28;20246;-79
2022/04/17 05:30:54;;;;;;;4.23;3.80;;;;;;;9.91;nan;100362.13;4988108;28;20474;-77
2022/04/17 05:33:21;;;;;;;3.53;3.23;;;;;;;10.21;nan;100369.41;4986882;28;20224;-79
2022/04/17 05:35:48;;;;;;;4.47;3.47;;;;;;;10.53;nan;100356.41;4990007;28;20282;-78
2022/04/17 05:38:14;;;;;;;4.78;4.00;;;;;;;10.68;nan;100350.38;4987407;28;20199;-80
2022/04/17 05:40:44;;;;;;;3.80;3.33;;;;;;;10.58;nan;100360.50;4988532;28;20192;-76
2022/04/17 05:43:11;;;;;;;4.45;3.53;;;;;;;10.21;nan;100361.53;4986688;28;20227;-82
2022/04/17 05:45:40;;;;;;;4.57;4.20;;;;;;;9.78;nan;100360.16;4989416;28;20207;-78
2022/04/17 05:48:13;;;;;;;4.63;4.20;;;;;;;9.33;nan;100364.88;4990252;28;20216;-78
2022/04/17 05:50:38;;;;;;;4.78;4.00;;;;;;;8.79;nan;100363.81;4988059;28;20199;-82
2022/04/17 05:53:04;;;;;;;5.70;3.80;;;;;;;8.30;nan;100372.00;4968569;28;20350;-81
2022/04/17 05:55:31;;;;;;;4.40;4.00;;;;;;;7.86;nan;100363.38;4987532;28;20612;-83
2022/04/17 05:57:57;;;;;;;4.00;3.67;;;;;;;7.56;nan;100363.69;4987807;28;20206;-77
2022/04/17 06:00:22;;;;;;;4.50;3.60;;;;;;;7.35;nan;100360.13;4987355;28;20200;-83
2022/04/17 06:02:48;;;;;;;7.00;3.80;;;;;;;7.34;nan;100365.41;4987385;28;20735;-77
2022/04/17 06:05:15;;;;;;;4.55;4.15;;;;;;;7.51;nan;100361.22;4986079;28;20215;-77
2022/04/17 06:07:40;;;;;;;3.92;2.85;;;;;;;8.00;nan;100362.81;4985017;28;20232;-88
2022/04/17 06:10:11;;;;;;;4.60;3.20;;;;;;;8.76;nan;100358.72;4984692;28;20215;-77
2022/04/17 06:12:37;;;;;;;3.28;2.95;;;;;;;9.56;nan;100350.69;4982055;28;20282;-78
2022/04/17 06:15:04;;;;;;;2.95;2.65;;;;;;;10.30;nan;100353.19;4981087;28;20223;-86
2022/04/17 06:17:40;;;;;;;3.10;2.63;;;;;;;11.08;nan;100348.28;4985322;28;20257;-78
2022/04/17 06:20:08;;;;;;;3.92;3.22;;;;;;;11.84;nan;100343.16;4984470;28;20207;-78
2022/04/17 06:22:35;;;;;;;3.17;2.70;;;;;;;12.54;nan;100348.75;4984891;28;20196;-78
2022/04/17 06:25:05;;;;;;;7.95;3.20;;;;;;;13.06;nan;100342.94;4983743;28;20218;-81
2022/04/17 06:27:39;;;;;;;2.30;2.08;;;;;;;13.61;nan;100337.75;4983350;28;20267;-83
2022/04/17 06:30:14;;;;;;;2.97;2.30;;;;;;;13.87;nan;100330.81;4984096;28;20665;-81
2022/04/17 06:32:40;;;;;;;3.90;2.57;;;;;;;14.07;nan;100326.81;4981980;28;20475;-76
2022/04/17 06:35:07;;;;;;;2.70;2.50;;;;;;;14.27;nan;100336.06;4982548;28;20554;-76
2022/04/17 06:37:46;;;;;;;2.42;2.22;;;;;;;14.62;nan;100332.88;4981863;28;20202;-85
2022/04/17 06:40:14;;;;;;;2.60;2.40;;;;;;;14.75;nan;100336.34;4982488;28;20231;-78
2022/04/17 06:42:39;;;;;;;3.85;2.17;;;;;;;14.88;nan;100338.97;4981699;28;20234;-80
2022/04/17 06:45:05;;;;;;;3.57;2.40;;;;;;;14.83;nan;100334.03;4982250;28;20272;-86
2022/04/17 06:47:31;;;;;;;3.27;2.90;;;;;;;14.50;nan;100327.44;4981454;28;20284;-77
2022/04/17 06:49:56;;;;;;;6.43;2.87;;;;;;;13.78;nan;100334.91;4981921;28;20870;-80
2022/04/17 06:52:21;;;;;;;2.30;2.10;;;;;;;13.04;nan;100331.66;4981404;28;20767;-75
2022/04/17 06:54:47;;;;;;;3.10;2.50;;;;;;;12.43;nan;100331.91;4981794;28;20235;-79
2022/04/17 06:57:13;;;;;;;2.90;2.47;;;;;;;11.86;nan;100337.88;4980215;28;20207;-78
2022/04/17 06:59:39;;;;;;;2.60;2.40;;;;;;;11.42;nan;100339.41;4981634;28;20726;-76
2022/04/17 07:02:05;;;;;;;3.20;2.50;;;;;;;11.05;nan;100330.88;4978391;28;20481;-84
2022/04/17 07:04:31;;;;;;;2.30;2.10;;;;;;;10.73;nan;100337.00;4981751;28;20595;-77
2022/04/17 07:06:56;;;;;;;2.20;2.00;;;;;;;10.47;nan;100339.19;4980631;28;20747;-75
2022/04/17 07:09:22;;;;;;;3.10;2.40;;;;;;;10.30;nan;100337.44;4980286;28;20219;-87
2022/04/17 07:11:47;;;;;;;3.90;2.30;;;;;;;10.13;nan;100345.31;4981057;28;20212;-75
2022/04/17 07:14:14;;;;;;;3.10;2.80;;;;;;;10.00;nan;100341.59;4980212;28;20298;-76
2022/04/17 07:16:41;;;;;;;2.70;2.50;;;;;;;9.95;nan;100332.16;4981782;28;20738;-82
2022/04/17 07:19:06;;;;;;;2.63;1.83;;;;;;;10.30;nan;100329.56;4982751;28;20680;-79
2022/04/17 07:21:32;;;;;;;2.50;2.00;;;;;;;11.00;nan;100326.81;4981043;28;20230;-76
2022/04/17 07:23:57;;;;;;;2.60;2.40;;;;;;;11.73;nan;100322.72;4981421;28;20235;-84
2022/04/17 07:26:23;;;;;;;2.77;2.50;;;;;;;12.53;nan;100317.22;4980231;28;20710;-76
2022/04/17 07:28:49;;;;;;;2.93;2.63;;;;;;;13.27;nan;100303.84;4978902;28;20560;-76
2022/04/17 07:31:14;;;;;;;2.50;1.77;;;;;;;13.81;nan;100312.72;4981246;28;20200;-80
2022/04/17 07:33:40;;;;;;;3.13;2.37;;;;;;;14.30;nan;100299.72;4979279;28;20286;-77
2022/04/17 07:36:05;;;;;;;2.20;2.00;;;;;;;14.80;nan;100298.06;4980238;28;20294;-82
2022/04/17 07:38:30;;;;;;;2.47;2.27;;;;;;;15.38;nan;100297.50;4979320;28;20802;-76
2022/04/17 07:40:56;;;;;;;1.90;1.70;;;;;;;15.85;nan;100295.81;4981863;28;20278;-77
2022/04/17 07:43:22;;;;;;;2.40;2.20;;;;;;;16.17;nan;100292.53;4983815;28;20239;-76
2022/04/17 07:45:47;;;;;;;3.37;1.87;;;;;;;16.40;nan;100291.63;4984182;28;20643;-75
2022/04/17 07:48:13;;;;;;;2.03;1.90;;;;;;;16.54;nan;100288.75;4985619;28;21062;-76
2022/04/17 07:50:39;;;;;;;2.73;2.47;;;;;;;16.69;nan;100284.06;4984668;28;20228;-80
2022/04/17 07:53:04;;;;;;;2.30;2.10;;;;;;;16.77;nan;100287.00;4983479;28;20276;-83
2022/04/17 07:55:30;;;;;;;1.87;1.77;;;;;;;16.83;nan;100285.69;4982964;28;20209;-76
2022/04/17 07:58:03;;;;;;;1.80;1.70;;;;;;;17.08;nan;100276.59;4983677;28;20547;-86
2022/04/17 08:00:35;;;;;;;8.25;2.40;;;;;;;17.36;nan;100274.34;4980805;28;20248;-80
2022/04/17 08:03:07;;;;;;;3.05;2.22;;;;;;;17.36;nan;100269.91;4983484;28;20263;-83
2022/04/17 08:05:39;;;;;;;2.53;2.03;;;;;;;17.41;nan;100262.38;4980929;28;20335;-84
2022/04/17 08:08:06;;;;;;;2.00;1.80;;;;;;;17.46;nan;100270.00;4981857;28;21060;-81
2022/04/17 08:10:33;;;;;;;2.70;2.03;;;;;;;17.61;nan;100263.44;4981494;28;20258;-80
2022/04/17 08:12:58;;;;;;;1.67;1.58;;;;;;;17.94;nan;100250.97;4982505;28;20941;-76
2022/04/17 08:15:23;;;;;;;2.70;2.50;;;;;;;18.19;nan;100257.72;4980234;28;20317;-75
2022/04/17 08:17:49;;;;;;;1.93;1.63;;;;;;;18.38;nan;100256.97;4981637;28;20209;-81
2022/04/17 08:20:14;;;;;;;2.00;1.80;;;;;;;18.57;nan;100248.25;4981735;28;20214;-81
2022/04/17 08:22:39;;;;;;;2.10;1.87;;;;;;;18.32;nan;100255.69;4981338;28;20199;-75
2022/04/17 08:25:06;;;;;;;2.40;2.03;;;;;;;18.28;nan;100253.41;4980495;28;20218;-81
2022/04/17 08:27:31;;;;;;;2.37;2.17;;;;;;;18.51;nan;100241.66;4982340;28;20571;-76
2022/04/17 08:29:56;;;;;;;2.03;1.93;;;;;;;18.86;nan;100250.22;4981333;28;21192;-80
2022/04/17 08:32:22;;;;;;;1.90;1.73;;;;;;;18.95;nan;100244.91;4982270;28;20210;-84
2022/04/17 08:34:47;;;;;;;1.67;1.43;;;;;;;19.05;nan;100244.13;4980596;28;20230;-77
2022/04/17 08:37:13;;;;;;;2.20;1.80;;;;;;;19.09;nan;100243.72;4982378;28;20213;-77
2022/04/17 08:39:38;;;;;;;2.13;1.57;;;;;;;19.06;nan;100246.63;4982293;28;20211;-83
2022/04/17 08:42:07;;;;;;;2.23;1.67;;;;;;;18.99;nan;100241.03;5146280;23;21067;-90
2022/04/17 08:44:33;;;;;;;1.40;1.30;;;;;;;18.52;nan;100237.16;4975475;28;20226;-88
2022/04/17 08:47:02;;;;;;;2.40;1.50;;;;;;;18.23;nan;100240.53;4979769;28;20504;-90
2022/04/17 08:49:27;;;;;;;2.40;1.70;;;;;;;18.11;nan;100230.94;4976051;28;20210;-90
2022/04/17 08:52:01;;;;;;;1.80;1.60;;;;;;;17.72;nan;100233.31;4980038;28;20528;-91
2022/04/17 08:54:37;;;;;;;4.05;1.95;;;;;;;17.57;nan;100232.75;4976774;28;20206;-90
2022/04/17 08:57:06;;;;;;;2.40;1.90;;;;;;;17.41;nan;100227.03;4979254;28;20704;-90
2022/04/17 08:59:32;;;;;;;1.40;1.30;;;;;;;17.20;nan;100219.00;4978479;28;20466;-91
2022/04/17 09:02:30;;;;;;;2.07;1.60;;;;;;;17.28;nan;100213.06;4984647;28;20587;-90
2022/04/17 09:05:08;;;;;;;1.70;1.40;;;;;;;17.35;nan;100209.78;4970411;28;20472;-91
2022/04/17 09:07:41;;;;;;;1.67;1.57;;;;;;;17.01;nan;100211.69;4991230;28;20452;-88
2022/04/17 09:10:09;;;;;;;1.77;1.27;;;;;;;16.90;nan;100204.59;4980390;28;20517;-89
2022/04/17 09:12:39;;;;;;;1.93;1.47;;;;;;;16.99;nan;100206.53;4980787;28;20525;-90
2022/04/17 09:15:13;;;;;;;1.30;1.20;;;;;;;17.29;nan;100207.66;4985823;23;21033;-80
2022/04/17 09:17:39;;;;;;;1.40;1.30;;;;;;;17.64;nan;100198.56;4957686;28;20466;-78
2022/04/17 09:20:05;;;;;;;1.50;1.40;;;;;;;17.65;nan;100197.59;4958813;28;20459;-78
2022/04/17 09:22:48;;;;;;;2.30;1.77;;;;;;;17.33;nan;100190.47;4960896;28;20200;-77
2022/04/17 09:25:14;;;;;;;2.53;1.43;;;;;;;17.52;nan;100183.66;4960780;28;20943;-79
2022/04/17 09:27:54;;;;;;;1.80;1.10;;;;;;;17.87;nan;100178.88;4957260;28;20704;-76
2022/04/17 09:30:28;;;;;;;1.53;1.40;;;;;;;17.58;nan;100177.81;4959369;28;20466;-76
2022/04/17 09:32:54;;;;;;;2.10;1.60;;;;;;;17.48;nan;100170.63;4957937;28;20513;-76
2022/04/17 09:35:26;;;;;;;2.87;1.60;;;;;;;17.79;nan;100176.03;4957834;28;20890;-78
2022/04/17 09:37:59;;;;;;;1.77;1.63;;;;;;;18.03;nan;100167.78;4960237;28;20487;-76
2022/04/17 09:40:26;;;;;;;2.00;1.57;;;;;;;18.06;nan;100166.69;4960211;28;20549;-77
2022/04/17 09:43:10;;;;;;;2.27;1.70;;;;;;;18.11;nan;100175.09;4959039;28;20618;-78
2022/04/17 09:45:59;;;;;;;2.10;1.40;;;;;;;18.19;nan;100167.31;4959311;28;20518;-79
2022/04/17 09:48:28;;;;;;;1.50;1.40;;;;;;;18.27;nan;100164.81;4958033;28;21121;-78
2022/04/17 09:50:53;;;;;;;2.30;1.50;;;;;;;18.37;nan;100156.06;4959152;28;20439;-77
2022/04/17 09:54:01;;;;;;;1.43;1.33;;;;;;;18.49;nan;100158.47;4956502;28;20836;-77
2022/04/17 09:56:35;;;;;;;3.63;1.63;;;;;;;18.42;nan;100159.16;4968379;28;20344;-77
2022/04/17 09:59:14;;;;;;;1.60;1.37;;;;;;;18.37;nan;100148.91;4958084;28;20816;-77
2022/04/17 10:01:39;;;;;;;2.30;1.87;;;;;;;18.52;nan;100141.41;4959985;28;20479;-77
2022/04/17 10:04:06;;;;;;;2.83;1.80;;;;;;;18.55;nan;100130.47;4955142;28;20495;-78
2022/04/17 10:06:34;;;;;;;2.77;1.60;;;;;;;18.51;nan;100139.72;4957762;28;20209;-77
2022/04/17 10:09:01;;;;;;;1.53;1.43;;;;;;;18.35;nan;100138.41;4958842;28;20471;-78
2022/04/17 10:11:29;;;;;;;1.97;1.60;;;;;;;18.51;nan;100123.75;4958065;28;20468;-76
2022/04/17 10:13:57;;;;;;;1.93;1.73;;;;;;;18.44;nan;100127.94;4959458;28;20718;-78
2022/04/17 10:16:23;;;;;;;2.47;1.93;;;;;;;18.33;nan;100119.09;4979852;28;20955;-77
2022/04/17 10:18:49;;;;;;;1.60;1.50;;;;;;;18.48;nan;100114.22;4976551;28;20890;-77
2022/04/17 10:21:16;;;;;;;1.70;1.30;;;;;;;18.45;nan;100111.00;4981659;28;20476;-78
2022/04/17 10:23:45;;;;;;;2.10;1.90;;;;;;;18.34;nan;100110.13;4978842;28;20522;-78
2022/04/17 10:26:13;;;;;;;1.97;1.80;;;;;;;18.50;nan;100103.47;4992242;28;20481;-78
2022/04/17 10:28:44;;;;;;;2.23;1.50;;;;;;;18.48;nan;100097.44;4977386;28;20467;-75
2022/04/17 10:31:20;;;;;;;1.60;1.50;;;;;;;18.48;nan;100095.63;5213649;22;20982;-91
2022/04/17 10:34:32;;;;;;;2.10;2.00;;;;;;;18.69;nan;100087.53;5015038;28;20780;-90
2022/04/17 10:37:22;;;;;;;2.67;1.67;;;;;;;18.69;nan;100079.56;5021048;28;20518;-89
2022/04/17 10:39:57;;;;;;;1.80;1.30;;;;;;;18.68;nan;100069.88;5020677;28;20973;-90
2022/04/17 10:42:35;;;;;;;2.03;1.37;;;;;;;18.50;nan;100066.22;5017274;28;20457;-90
2022/04/17 10:45:12;;;;;;;2.80;2.60;;;;;;;18.61;nan;100063.44;4994340;28;20545;-90
2022/04/17 10:47:38;;;;;;;7.63;4.80;;;;;;;18.72;nan;100060.63;5016235;28;20900;-90
2022/04/17 10:50:29;;;;;;;3.47;2.53;;;;;;;18.93;nan;100051.69;4996847;28;21281;-90
2022/04/17 10:53:15;;;;;;;2.30;1.30;;;;;;;19.19;nan;100050.13;5014142;28;20553;-90
2022/04/17 10:56:10;;;;;;;2.07;1.57;;;;;;;19.36;nan;100039.75;5020970;28;21384;-88
2022/04/17 10:58:43;;;;;;;1.63;1.27;;;;;;;19.43;nan;100033.69;4999026;28;20489;-90
2022/04/17 11:01:22;;;;;;;;;;;;;;;;;;;;;
2022/04/17 11:03:59;;;;;;;1.33;1.17;;;;;;;19.31;nan;100028.66;5013695;28;21248;-89
2022/04/17 11:06:35;;;;;;;1.40;1.30;;;;;;;19.20;nan;100027.88;4989609;28;20569;-89
2022/04/17 11:09:21;;;;;;;1.53;1.20;;;;;;;19.34;nan;100015.94;4976680;28;20473;-91
2022/04/17 11:12:07;;;;;;;2.03;1.17;;;;;;;19.50;nan;100022.47;5011894;28;20478;-90
2022/04/17 11:15:11;;;;;;;1.53;1.30;;;;;;;19.42;nan;100012.53;5020686;28;20464;-90
2022/04/17 11:17:50;;;;;;;2.97;1.03;;;;;;;19.18;nan;100016.50;5015925;28;20513;-90
2022/04/17 11:20:46;;;;;;;;;;;;;;;;;;;;;
2022/04/17 11:24:01;;;;;;;1.53;1.10;;;;;;;19.21;nan;100005.56;5033754;28;20721;-91
2022/04/17 11:26:55;;;;;;;1.20;1.00;;;;;;;19.07;nan;100007.84;5038093;28;21572;-90
2022/04/17 11:29:51;;;;;;;3.20;1.50;;;;;;;18.84;nan;99992.16;4977377;28;20468;-90
2022/04/17 11:32:35;;;;;;;1.33;1.23;;;;;;;18.85;nan;100001.00;4987227;28;20834;-91
2022/04/17 11:35:18;;;;;;;;;;;;;;;;;;;;;
2022/04/17 11:38:05;;;;;;;1.30;1.00;;;;;;;19.08;nan;99991.72;4973409;28;20608;-89
2022/04/17 11:40:46;;;;;;;;;;;;;;;;;;;;;
2022/04/17 11:43:21;;;;;;;1.10;0.90;;;;;;;19.04;nan;99992.13;4958527;28;20464;-90
2022/04/17 11:46:16;;;;;;;;;;;;;;;;;;;;;
2022/04/17 11:48:55;;;;;;;1.10;1.00;;;;;;;18.89;nan;99986.44;5018712;28;21018;-90
2022/04/17 11:52:24;;;;;;;1.47;1.30;;;;;;;18.81;nan;99987.13;4984771;28;20463;-90
2022/04/17 11:55:33;;;;;;;;;;;;;;;;;;;;;
2022/04/17 11:58:03;;;;;;;1.50;1.23;;;;;;;18.96;nan;99969.75;4969821;28;20499;-90
2022/04/17 12:00:41;;;;;;;1.60;1.33;;;;;;;19.15;nan;99973.38;4968940;28;20572;-91
2022/04/17 12:03:38;;;;;;;1.20;0.90;;;;;;;19.23;nan;99970.81;4974914;28;20578;-92
2022/04/17 12:06:23;;;;;;;;;;;;;;;;;;;;;
2022/04/17 12:08:52;;;;;;;1.23;0.80;;;;;;;19.18;nan;99949.94;4982432;28;21560;-91
2022/04/17 12:11:49;;;;;;;1.10;1.00;;;;;;;19.13;nan;99949.53;4979395;28;20480;-91
2022/04/17 12:15:37;;;;;;;;;;;;;;;;;;;;;
2022/04/17 12:18:33;;;;;;;;;;;;;;;;;;;;;
2022/04/17 12:21:12;;;;;;;1.27;0.90;;;;;;;19.13;nan;99930.88;4977201;28;20311;-92
2022/04/17 12:23:48;;;;;;;1.10;1.00;;;;;;;19.05;nan;99938.75;4965351;28;20909;-92
2022/04/17 12:26:19;;;;;;;1.00;0.93;;;;;;;19.09;nan;99926.84;4971885;28;20549;-89
2022/04/17 12:28:56;;;;;;;1.10;1.00;;;;;;;19.16;nan;99925.28;4990425;28;20463;-90